createdAt,value
2022-09-06T00:01:23.279Z,38.97
2022-09-06T00:03:51.211Z,32.28
2022-09-06T00:06:20.218Z,34.60
2022-09-06T00:08:48.376Z,33.67
2022-09-06T00:11:15.982Z,35.67
2022-09-06T00:13:42.788Z,32.80
2022-09-06T00:16:12.280Z,32.05
2022-09-06T00:18:39.422Z,31.25
2022-09-06T00:21:17.912Z,32.33
2022-09-06T00:23:44.386Z,31.25
2022-09-06T00:26:10.812Z,31.48
2022-09-06T00:28:38.098Z,32.45
2022-09-06T00:31:16.375Z,33.88
2022-09-06T00:33:43.903Z,33.72
2022-09-06T00:36:12.201Z,34.95
2022-09-06T00:38:39.557Z,33.08
2022-09-06T00:41:08.049Z,36.83
2022-09-06T00:43:34.635Z,33.78
2022-09-06T00:46:03.347Z,34.30
2022-09-06T00:48:30.433Z,32.92
2022-09-06T00:51:00.800Z,34.03
2022-09-06T00:53:28.108Z,35.75
2022-09-06T00:55:55.636Z,36.42
2022-09-06T00:58:22.621Z,35.50
2022-09-06T01:00:49.110Z,36.85
2022-09-06T01:03:15.611Z,36.10
2022-09-06T01:06:01.387Z,42.38
2022-09-06T01:08:47.315Z,36.58
2022-09-06T01:11:27.404Z,36.35
2022-09-06T01:14:18.795Z,35.17
2022-09-06T01:17:16.630Z,33.75
2022-09-06T01:19:45.796Z,36.42
2022-09-06T01:22:19.629Z,36.97
2022-09-06T01:24:55.137Z,34.53
2022-09-06T01:27:33.838Z,36.92
2022-09-06T01:30:13.089Z,36.30
2022-09-06T01:33:07.459Z,36.03
2022-09-06T01:35:40.220Z,35.28
2022-09-06T01:38:08.039Z,35.47
2022-09-06T01:40:36.423Z,34.75
2022-09-06T01:43:10.637Z,34.83
2022-09-06T01:45:57.003Z,34.80
2022-09-06T01:48:48.236Z,32.67
2022-09-06T01:51:32.161Z,34.95
2022-09-06T01:54:16.580Z,36.30
2022-09-06T01:56:55.753Z,31.95
2022-09-06T01:59:33.969Z,32.67
2022-09-06T02:02:08.000Z,33.35
2022-09-06T02:04:47.248Z,36.10
2022-09-06T02:07:27.678Z,33.65
2022-09-06T02:10:00.388Z,31.77
2022-09-06T02:12:30.572Z,32.80
2022-09-06T02:15:03.068Z,31.35
2022-09-06T02:17:37.339Z,32.63
2022-09-06T02:20:13.012Z,31.38
2022-09-06T02:22:43.752Z,32.17
2022-09-06T02:25:15.741Z,31.60
2022-09-06T02:27:42.260Z,31.17
2022-09-06T02:30:09.233Z,33.22
2022-09-06T02:32:43.009Z,34.72
2022-09-06T02:35:14.612Z,35.92
2022-09-06T02:37:41.897Z,34.33
2022-09-06T02:40:10.235Z,30.73
2022-09-06T02:42:36.752Z,34.08
2022-09-06T02:45:05.113Z,33.95
2022-09-06T02:47:31.582Z,38.50
2022-09-06T02:49:58.089Z,34.22
2022-09-06T02:52:24.632Z,33.63
2022-09-06T02:54:51.701Z,31.15
2022-09-06T02:57:18.209Z,34.78
2022-09-06T02:59:45.943Z,31.88
2022-09-06T03:02:12.474Z,34.25
2022-09-06T03:04:39.007Z,31.90
2022-09-06T03:07:05.448Z,33.55
2022-09-06T03:09:31.909Z,32.45
2022-09-06T03:11:58.403Z,37.80
2022-09-06T03:14:24.816Z,33.40
2022-09-06T03:16:51.366Z,33.70
2022-09-06T03:19:18.038Z,36.08
2022-09-06T03:21:44.480Z,33.65
2022-09-06T03:24:10.962Z,35.60
2022-09-06T03:26:37.393Z,34.53
2022-09-06T03:29:03.876Z,33.67
2022-09-06T03:31:30.335Z,41.25
2022-09-06T03:33:56.833Z,40.83
2022-09-06T03:36:23.360Z,36.03
2022-09-06T03:38:51.127Z,32.22
2022-09-06T03:41:17.562Z,34.55
2022-09-06T03:43:44.002Z,37.75
2022-09-06T03:46:10.488Z,36.13
2022-09-06T03:48:36.936Z,35.08
2022-09-06T03:51:03.407Z,35.35
2022-09-06T03:53:30.072Z,35.22
2022-09-06T03:56:00.164Z,39.42
2022-09-06T03:58:30.925Z,37.78
2022-09-06T04:05:54.911Z,36.67
2022-09-06T04:08:21.445Z,32.95
2022-09-06T04:10:51.317Z,36.45
2022-09-06T04:13:18.122Z,34.55
2022-09-06T04:15:48.184Z,44.08
2022-09-06T04:18:15.729Z,38.28
2022-09-06T04:20:42.505Z,38.38
2022-09-06T04:23:09.264Z,33.97
2022-09-06T04:25:35.720Z,34.95
2022-09-06T04:28:02.422Z,36.42
2022-09-06T04:30:28.962Z,36.15
2022-09-06T04:32:55.407Z,52.65
2022-09-06T04:35:21.890Z,37.78
2022-09-06T04:37:48.385Z,34.35
2022-09-06T04:40:15.103Z,35.85
2022-09-06T04:42:41.520Z,36.67
2022-09-06T04:45:08.501Z,36.80
2022-09-06T04:47:34.969Z,39.38
2022-09-06T04:50:01.471Z,38.53
2022-09-06T04:52:30.190Z,36.50
2022-09-06T04:54:57.146Z,34.08
2022-09-06T04:57:23.599Z,35.53
2022-09-06T04:59:50.048Z,35.90
2022-09-06T05:02:16.506Z,40.65
2022-09-06T05:04:42.992Z,37.40
2022-09-06T05:07:09.552Z,39.05
2022-09-06T05:09:36.773Z,42.60
2022-09-06T05:12:03.593Z,41.88
2022-09-06T05:14:30.050Z,38.67
2022-09-06T05:16:56.635Z,39.80
2022-09-06T05:19:23.124Z,39.15
2022-09-06T05:21:51.492Z,41.47
2022-09-06T05:24:18.060Z,37.40
2022-09-06T05:26:44.528Z,43.08
2022-09-06T05:29:11.037Z,40.85
2022-09-06T05:31:37.564Z,40.58
2022-09-06T05:34:04.077Z,36.25
2022-09-06T05:36:31.413Z,35.03
2022-09-06T05:38:58.674Z,37.08
2022-09-06T05:41:26.173Z,37.85
2022-09-06T05:43:52.942Z,39.10
2022-09-06T05:46:19.929Z,39.95
2022-09-06T05:49:07.788Z,41.15
2022-09-06T05:51:34.277Z,40.83
2022-09-06T05:54:00.713Z,40.63
2022-09-06T05:56:27.166Z,49.78
2022-09-06T05:58:53.717Z,39.90
2022-09-06T06:01:26.619Z,38.40
2022-09-06T06:04:04.987Z,42.75
2022-09-06T06:06:33.293Z,39.58
2022-09-06T06:09:00.477Z,38.92
2022-09-06T06:11:27.787Z,41.78
2022-09-06T06:13:54.429Z,37.70
2022-09-06T06:16:22.546Z,39.65
2022-09-06T06:18:52.344Z,36.30
2022-09-06T06:21:23.185Z,33.17
2022-09-06T06:23:52.349Z,34.35
2022-09-06T06:26:19.721Z,25.58
2022-09-06T06:28:46.587Z,20.15
2022-09-06T06:31:13.172Z,34.88
2022-09-06T06:33:39.949Z,33.28
2022-09-06T06:36:07.769Z,33.03
2022-09-06T06:38:37.592Z,34.50
2022-09-06T06:41:07.276Z,38.63
2022-09-06T06:43:38.048Z,29.83
2022-09-06T06:48:43.642Z,33.45
2022-09-06T06:51:12.320Z,30.75
2022-09-06T06:53:38.911Z,31.63
2022-09-06T06:56:15.512Z,36.03
2022-09-06T06:58:42.654Z,35.08
2022-09-06T07:01:10.160Z,33.60
2022-09-06T07:03:36.785Z,36.28
2022-09-06T07:06:12.267Z,31.05
2022-09-06T07:08:40.341Z,34.88
2022-09-06T07:11:08.102Z,33.42
2022-09-06T07:13:34.638Z,29.50
2022-09-06T07:16:13.479Z,40.08
2022-09-06T07:18:42.273Z,28.88
2022-09-06T07:24:06.816Z,28.13
2022-09-06T07:26:35.992Z,31.55
2022-09-06T07:29:04.523Z,25.65
2022-09-06T07:34:19.249Z,25.65
2022-09-06T07:36:45.752Z,24.13
2022-09-06T07:39:12.206Z,25.13
2022-09-06T07:41:38.663Z,24.20
2022-09-06T07:44:05.110Z,27.17
2022-09-06T07:46:31.629Z,32.55
2022-09-06T07:48:58.203Z,27.02
2022-09-06T07:51:24.671Z,29.30
2022-09-06T07:54:07.474Z,23.88
2022-09-06T07:56:41.796Z,25.45
2022-09-06T07:59:09.239Z,24.73
2022-09-06T08:01:37.373Z,20.45
2022-09-06T08:04:12.806Z,22.17
2022-09-06T08:09:28.260Z,21.42
2022-09-06T08:11:54.861Z,19.55
2022-09-06T08:14:21.377Z,19.60
2022-09-06T08:16:47.863Z,21.85
2022-09-06T08:19:14.392Z,19.48
2022-09-06T08:21:40.905Z,21.63
2022-09-06T08:24:09.778Z,23.13
2022-09-06T08:26:42.994Z,20.50
2022-09-06T08:29:10.852Z,22.60
2022-09-06T08:31:40.340Z,20.27
2022-09-06T08:34:07.333Z,19.90
2022-09-06T08:36:34.488Z,19.25
2022-09-06T08:39:03.816Z,21.98
2022-09-06T08:41:45.394Z,19.73
2022-09-06T08:47:08.723Z,28.70
2022-09-06T08:49:39.456Z,21.75
2022-09-06T08:52:25.740Z,19.70
2022-09-06T08:55:12.395Z,19.88
2022-09-06T08:58:08.492Z,21.20
2022-09-06T09:00:36.998Z,24.05
2022-09-06T09:03:03.499Z,23.65
2022-09-06T09:05:33.609Z,21.83
2022-09-06T09:08:37.292Z,21.67
2022-09-06T09:11:07.467Z,17.58
2022-09-06T09:13:39.679Z,21.35
2022-09-06T09:16:06.859Z,17.92
2022-09-06T09:18:38.552Z,22.20
2022-09-06T09:21:05.467Z,21.25
2022-09-06T09:23:32.457Z,22.27
2022-09-06T09:26:04.724Z,18.92
2022-09-06T09:28:31.674Z,21.70
2022-09-06T09:30:58.481Z,20.80
2022-09-06T09:33:36.983Z,19.60
2022-09-06T09:36:09.711Z,19.42
2022-09-06T09:38:49.240Z,21.35
2022-09-06T09:41:32.091Z,24.77
2022-09-06T09:44:17.764Z,25.60
2022-09-06T09:46:44.607Z,32.67
2022-09-06T09:49:29.247Z,24.15
2022-09-06T09:52:13.751Z,21.40
2022-09-06T09:54:44.447Z,19.73
2022-09-06T09:57:18.460Z,24.83
2022-09-06T09:59:58.214Z,17.30
2022-09-06T10:02:32.482Z,17.80
2022-09-06T10:05:12.115Z,17.95
2022-09-06T10:07:51.926Z,16.33
2022-09-06T10:10:23.556Z,16.05
2022-09-06T10:13:20.413Z,19.98
2022-09-06T10:15:48.204Z,18.02
2022-09-06T10:18:41.391Z,20.25
2022-09-06T10:21:14.941Z,17.35
2022-09-06T10:24:27.834Z,15.05
2022-09-06T10:27:01.958Z,14.98
2022-09-06T10:29:45.436Z,13.73
2022-09-06T10:32:30.934Z,11.50
2022-09-06T10:35:09.394Z,9.40
2022-09-06T10:37:44.994Z,13.50
2022-09-06T10:40:16.391Z,16.48
2022-09-06T10:42:47.059Z,10.23
2022-09-06T10:45:21.928Z,11.68
2022-09-06T10:48:12.579Z,13.55
2022-09-06T10:51:01.143Z,17.92
2022-09-06T10:53:37.655Z,10.27
2022-09-06T10:56:09.450Z,13.95
2022-09-06T11:02:03.757Z,13.73
2022-09-06T11:07:42.765Z,10.93
2022-09-06T11:10:21.436Z,13.05
2022-09-06T11:13:03.205Z,11.55
2022-09-06T11:15:37.377Z,10.07
2022-09-06T11:18:15.604Z,11.75
2022-09-06T11:20:52.334Z,9.98
2022-09-06T11:23:41.022Z,14.63
2022-09-06T11:26:38.588Z,13.60
2022-09-06T11:29:09.673Z,10.57
2022-09-06T11:32:19.048Z,14.43
2022-09-06T11:34:57.660Z,12.93
2022-09-06T11:37:49.585Z,10.52
2022-09-06T11:40:26.750Z,9.05
2022-09-06T11:42:54.384Z,12.30
2022-09-06T11:45:39.237Z,9.27
2022-09-06T11:48:24.159Z,9.43
2022-09-06T11:50:53.386Z,9.05
2022-09-06T11:53:21.802Z,11.70
2022-09-06T11:55:50.906Z,15.90
2022-09-06T11:58:17.686Z,13.57
2022-09-06T12:00:46.421Z,11.93
2022-09-06T12:06:43.715Z,11.55
2022-09-06T12:09:28.674Z,11.80
2022-09-06T12:11:56.594Z,11.75
2022-09-06T12:14:42.956Z,11.20
2022-09-06T12:17:09.782Z,11.75
2022-09-06T12:20:06.805Z,11.88
2022-09-06T12:22:33.426Z,10.15
2022-09-06T12:25:02.486Z,10.27
2022-09-06T12:27:35.141Z,13.05
2022-09-06T12:30:08.912Z,15.63
2022-09-06T12:32:43.925Z,9.93
2022-09-06T12:38:24.756Z,11.10
2022-09-06T12:40:54.743Z,14.02
2022-09-06T12:43:21.276Z,12.90
2022-09-06T12:45:51.480Z,12.07
2022-09-06T12:51:03.823Z,10.57
2022-09-06T12:53:31.631Z,9.75
2022-09-06T12:56:12.145Z,8.80
2022-09-06T12:58:39.574Z,8.48
2022-09-06T13:01:27.422Z,10.13
2022-09-06T13:03:57.332Z,6.35
2022-09-06T13:06:27.186Z,5.93
2022-09-06T13:08:56.919Z,8.35
2022-09-06T13:11:27.620Z,8.25
2022-09-06T13:13:55.343Z,10.15
2022-09-06T13:16:25.214Z,5.90
2022-09-06T13:18:52.479Z,13.30
2022-09-06T13:21:46.326Z,7.40
2022-09-06T13:24:22.634Z,13.25
2022-09-06T13:26:49.570Z,15.88
2022-09-06T13:29:30.754Z,7.97
2022-09-06T13:31:59.725Z,19.58
2022-09-06T13:34:33.675Z,7.20
2022-09-06T13:37:05.345Z,7.32
2022-09-06T13:39:38.096Z,6.13
2022-09-06T13:42:07.566Z,12.07
2022-09-06T13:44:36.832Z,8.47
2022-09-06T13:47:03.846Z,6.18
2022-09-06T13:49:31.133Z,7.10
2022-09-06T13:52:00.355Z,6.38
2022-09-06T13:54:27.021Z,8.80
2022-09-06T13:56:53.557Z,6.90
2022-09-06T13:59:20.165Z,6.88
2022-09-06T14:01:49.771Z,7.97
2022-09-06T14:04:21.227Z,7.35
2022-09-06T14:06:49.144Z,7.10
2022-09-06T14:09:15.622Z,4.70
2022-09-06T14:11:47.504Z,5.25
2022-09-06T14:14:15.044Z,6.47
2022-09-06T14:16:41.489Z,7.05
2022-09-06T14:19:07.947Z,6.10
2022-09-06T14:21:34.670Z,6.15
2022-09-06T14:24:04.330Z,11.55
2022-09-06T14:26:33.074Z,5.70
2022-09-06T14:28:59.551Z,9.57
2022-09-06T14:31:27.898Z,8.73
2022-09-06T14:33:56.576Z,5.88
2022-09-06T14:36:26.332Z,8.57
2022-09-06T14:38:53.477Z,6.60
2022-09-06T14:41:20.560Z,6.18
2022-09-06T14:43:52.656Z,8.10
2022-09-06T14:46:21.989Z,5.93
2022-09-06T14:48:49.508Z,4.75
2022-09-06T14:51:23.927Z,6.72
2022-09-06T14:53:57.028Z,9.45
2022-09-06T14:56:24.264Z,4.93
2022-09-06T14:58:50.768Z,6.00
2022-09-06T15:01:20.608Z,9.43
2022-09-06T15:03:51.493Z,8.82
2022-09-06T15:06:20.414Z,7.28
2022-09-06T15:08:48.460Z,6.47
2022-09-06T15:11:15.807Z,6.43
2022-09-06T15:13:42.691Z,5.95
2022-09-06T15:16:10.946Z,6.88
2022-09-06T15:18:37.512Z,8.45
2022-09-06T15:21:15.670Z,6.78
2022-09-06T15:23:45.817Z,5.13
2022-09-06T15:28:41.929Z,6.97
2022-09-06T15:31:08.779Z,8.38
2022-09-06T15:33:37.433Z,5.05
2022-09-06T15:36:06.441Z,5.28
2022-09-06T15:38:34.169Z,6.55
2022-09-06T15:41:12.641Z,7.15
2022-09-06T15:43:42.444Z,6.13
2022-09-06T15:46:09.706Z,8.50
2022-09-06T15:48:51.277Z,6.85
2022-09-06T15:51:19.892Z,7.78
2022-09-06T15:53:47.057Z,6.88
2022-09-06T15:56:15.107Z,10.63
2022-09-06T15:58:41.764Z,9.30
2022-09-06T16:01:27.020Z,12.77
2022-09-06T16:04:05.502Z,16.48
2022-09-06T16:06:38.437Z,9.43
2022-09-06T16:09:11.505Z,6.50
2022-09-06T16:11:38.055Z,7.35
2022-09-06T16:14:06.719Z,5.88
2022-09-06T16:16:34.520Z,7.03
2022-09-06T16:19:01.476Z,5.45
2022-09-06T16:21:31.419Z,6.93
2022-09-06T16:24:00.584Z,10.57
2022-09-06T16:26:32.074Z,13.35
2022-09-06T16:28:59.509Z,7.10
2022-09-06T16:31:26.832Z,6.78
2022-09-06T16:33:53.824Z,5.38
2022-09-06T16:36:21.611Z,8.18
2022-09-06T16:38:48.433Z,11.80
2022-09-06T16:41:25.226Z,6.63
2022-09-06T16:43:52.619Z,9.93
2022-09-06T16:46:21.098Z,8.48
2022-09-06T16:48:52.623Z,11.10
2022-09-06T16:51:21.896Z,6.38
2022-09-06T16:53:49.386Z,11.57
2022-09-06T16:56:19.373Z,11.23
2022-09-06T16:58:54.324Z,8.38
2022-09-06T17:01:21.886Z,10.45
2022-09-06T17:03:48.666Z,8.35
2022-09-06T17:06:16.037Z,7.55
2022-09-06T17:08:43.246Z,8.57
2022-09-06T17:11:14.734Z,9.32
2022-09-06T17:13:41.761Z,9.45
2022-09-06T17:16:26.899Z,8.63
2022-09-06T17:18:53.925Z,8.05
2022-09-06T17:21:22.306Z,10.27
2022-09-06T17:23:49.526Z,10.82
2022-09-06T17:26:17.328Z,25.48
2022-09-06T17:28:43.791Z,8.75
2022-09-06T17:31:10.359Z,9.32
2022-09-06T17:33:37.228Z,4.65
2022-09-06T17:36:11.748Z,14.63
2022-09-06T17:38:42.751Z,12.88
2022-09-06T17:41:20.834Z,16.13
2022-09-06T17:43:48.542Z,13.15
2022-09-06T17:46:15.156Z,15.07
2022-09-06T17:48:43.053Z,9.02
2022-09-06T17:51:11.424Z,10.43
2022-09-06T17:53:38.733Z,11.05
2022-09-06T17:56:06.977Z,15.60
2022-09-06T17:58:33.468Z,15.80
2022-09-06T18:01:17.907Z,12.50
2022-09-06T18:03:46.195Z,11.57
2022-09-06T18:06:15.091Z,13.77
2022-09-06T18:08:44.173Z,11.02
2022-09-06T18:11:20.020Z,16.15
2022-09-06T18:13:47.150Z,13.00
2022-09-06T18:16:14.786Z,15.00
2022-09-06T18:18:42.533Z,12.43
2022-09-06T18:21:09.081Z,19.40
2022-09-06T18:23:36.265Z,20.90
2022-09-06T18:26:06.032Z,23.13
2022-09-06T18:28:35.346Z,21.88
2022-09-06T18:31:10.080Z,13.95
2022-09-06T18:33:37.720Z,14.77
2022-09-06T18:36:06.700Z,23.02
2022-09-06T18:38:37.299Z,16.45
2022-09-06T18:41:05.806Z,16.35
2022-09-06T18:43:40.157Z,10.35
2022-09-06T18:46:15.930Z,13.77
2022-09-06T18:48:42.505Z,11.88
2022-09-06T18:51:11.477Z,10.85
2022-09-06T18:53:42.705Z,10.35
2022-09-06T18:56:13.224Z,11.55
2022-09-06T18:58:40.401Z,15.77
2022-09-06T19:01:11.141Z,9.45
2022-09-06T19:03:38.726Z,12.38
2022-09-06T19:06:17.609Z,15.88
2022-09-06T19:08:44.593Z,22.52
2022-09-06T19:11:14.340Z,15.18
2022-09-06T19:13:41.828Z,13.73
2022-09-06T19:16:09.968Z,10.20
2022-09-06T19:18:37.041Z,15.85
2022-09-06T19:21:12.951Z,26.30
2022-09-06T19:23:42.298Z,15.57
2022-09-06T19:26:14.556Z,16.25
2022-09-06T19:28:41.321Z,12.68
2022-09-06T19:31:13.274Z,13.00
2022-09-06T19:33:40.674Z,17.55
2022-09-06T19:36:12.057Z,10.73
2022-09-06T19:39:01.529Z,18.05
2022-09-06T19:41:27.025Z,13.40
2022-09-06T19:43:55.617Z,15.90
2022-09-06T19:46:23.150Z,18.25
2022-09-06T19:48:52.069Z,14.55
2022-09-06T19:51:19.903Z,15.23
2022-09-06T19:53:53.073Z,14.20
2022-09-06T19:56:23.224Z,12.27
2022-09-06T19:58:57.910Z,13.75
2022-09-06T20:01:26.314Z,13.18
2022-09-06T20:03:52.948Z,15.18
2022-09-06T20:06:20.062Z,14.57
2022-09-06T20:08:50.879Z,12.02
2022-09-06T20:11:17.985Z,16.90
2022-09-06T20:13:44.507Z,13.60
2022-09-06T20:16:12.905Z,17.65
2022-09-06T20:18:39.972Z,14.80
2022-09-06T20:21:07.174Z,16.20
2022-09-06T20:23:34.757Z,9.93
2022-09-06T20:26:10.198Z,18.95
2022-09-06T20:28:37.145Z,13.00
2022-09-06T20:31:09.035Z,14.13
2022-09-06T20:33:35.913Z,15.02
2022-09-06T20:36:05.405Z,14.82
2022-09-06T20:38:33.726Z,11.18
2022-09-06T20:41:05.613Z,13.55
2022-09-06T20:43:35.172Z,11.57
2022-09-06T20:46:04.229Z,9.67
2022-09-06T20:48:32.678Z,8.82
2022-09-06T20:51:01.868Z,11.80
2022-09-06T20:53:30.196Z,12.57
2022-09-06T20:55:58.566Z,16.80
2022-09-06T20:58:25.694Z,14.98
2022-09-06T21:00:52.519Z,9.45
2022-09-06T21:03:19.171Z,16.13
2022-09-06T21:05:45.884Z,21.50
2022-09-06T21:08:12.629Z,17.65
2022-09-06T21:10:39.076Z,15.20
2022-09-06T21:13:05.853Z,23.27
2022-09-06T21:15:40.980Z,26.45
2022-09-06T21:18:08.920Z,14.20
2022-09-06T21:20:35.941Z,17.60
2022-09-06T21:23:02.703Z,15.48
2022-09-06T21:25:29.481Z,18.58
2022-09-06T21:27:56.041Z,20.50
2022-09-06T21:30:22.565Z,15.15
2022-09-06T21:32:49.362Z,19.45
2022-09-06T21:35:15.934Z,14.80
2022-09-06T21:37:42.364Z,17.30
2022-09-06T21:40:09.450Z,14.60
2022-09-06T21:42:35.930Z,16.83
2022-09-06T21:45:02.416Z,13.77
2022-09-06T21:47:30.324Z,16.77
2022-09-06T21:49:57.221Z,18.05
2022-09-06T21:52:23.807Z,21.60
2022-09-06T21:54:50.266Z,14.77
2022-09-06T21:57:17.119Z,21.33
2022-09-06T21:59:43.563Z,15.52
2022-09-06T22:02:10.161Z,13.45
2022-09-06T22:04:36.631Z,21.23
2022-09-06T22:07:03.978Z,16.75
2022-09-06T22:09:30.487Z,17.13
2022-09-06T22:11:56.941Z,18.73
2022-09-06T22:14:23.458Z,16.17
2022-09-06T22:16:51.945Z,14.05
2022-09-06T22:19:18.387Z,15.40
2022-09-06T22:21:45.476Z,17.27
2022-09-06T22:24:13.205Z,18.77
2022-09-06T22:26:41.068Z,16.33
2022-09-06T22:29:09.344Z,14.93
2022-09-06T22:31:36.913Z,17.98
2022-09-06T22:34:04.101Z,16.50
2022-09-06T22:36:30.674Z,17.85
2022-09-06T22:38:57.726Z,14.60
2022-09-06T22:41:26.412Z,19.98
2022-09-06T22:43:53.416Z,19.50
2022-09-06T22:46:20.231Z,17.38
2022-09-06T22:48:46.812Z,19.52
2022-09-06T22:51:13.379Z,17.67
2022-09-06T22:53:39.801Z,21.75
2022-09-06T22:56:06.552Z,21.45
2022-09-06T22:58:35.133Z,23.27
2022-09-06T23:01:12.989Z,23.08
2022-09-06T23:03:39.722Z,22.55
2022-09-06T23:06:06.468Z,27.70
2022-09-06T23:08:35.304Z,24.92
2022-09-06T23:11:12.987Z,26.02
2022-09-06T23:13:43.477Z,22.40
2022-09-06T23:19:13.964Z,20.88
2022-09-06T23:21:40.446Z,23.00
2022-09-06T23:24:07.265Z,23.13
2022-09-06T23:26:33.796Z,23.70
2022-09-06T23:29:00.296Z,21.95
2022-09-06T23:31:29.380Z,21.60
2022-09-06T23:33:57.342Z,22.25
2022-09-06T23:36:24.610Z,20.23
2022-09-06T23:38:51.256Z,23.45
2022-09-06T23:41:17.826Z,21.38
2022-09-06T23:43:44.462Z,22.45
2022-09-06T23:46:13.012Z,23.27
2022-09-06T23:48:39.500Z,23.35
2022-09-06T23:51:06.001Z,23.90
2022-09-06T23:53:33.056Z,23.08
2022-09-06T23:55:59.638Z,23.25
2022-09-06T23:58:26.168Z,25.77
